sensor_id;sensor_type;location;lat;lon;timestamp;P1;durP1;ratioP1;P2;durP2;ratioP2
61531;SDS011;47397;48.194;11.632;2023-02-28T00:00:14;3.60;;;2.30;;
61531;SDS011;47397;48.194;11.632;2023-02-28T00:01:15;3.53;;;2.22;;
61531;SDS011;47397;48.194;11.632;2023-02-28T00:02:15;3.20;;;2.00;;
61531;SDS011;47397;48.194;11.632;2023-02-28T00:03:16;4.35;;;2.13;;
61531;SDS011;47397;48.194;11.632;2023-02-28T00:04:17;3.58;;;2.33;;
61531;SDS011;47397;48.194;11.632;2023-02-28T00:05:18;3.58;;;2.05;;
61531;SDS011;47397;48.194;11.632;2023-02-28T00:06:19;3.10;;;2.20;;
61531;SDS011;47397;48.194;11.632;2023-02-28T00:07:20;2.83;;;2.00;;
61531;SDS011;47397;48.194;11.632;2023-02-28T00:08:20;4.55;;;2.30;;
61531;SDS011;47397;48.194;11.632;2023-02-28T00:09:21;2.72;;;1.80;;
61531;SDS011;47397;48.194;11.632;2023-02-28T00:10:22;2.88;;;1.98;;
61531;SDS011;47397;48.194;11.632;2023-02-28T00:11:24;4.15;;;2.17;;
61531;SDS011;47397;48.194;11.632;2023-02-28T00:12:24;2.97;;;2.10;;
61531;SDS011;47397;48.194;11.632;2023-02-28T00:13:25;3.50;;;2.22;;
61531;SDS011;47397;48.194;11.632;2023-02-28T00:14:27;3.63;;;2.08;;
61531;SDS011;47397;48.194;11.632;2023-02-28T00:15:27;2.92;;;1.90;;
61531;SDS011;47397;48.194;11.632;2023-02-28T00:16:28;3.05;;;2.15;;
61531;SDS011;47397;48.194;11.632;2023-02-28T00:17:28;4.53;;;2.63;;
61531;SDS011;47397;48.194;11.632;2023-02-28T00:18:29;3.63;;;2.28;;
61531;SDS011;47397;48.194;11.632;2023-02-28T00:19:29;3.65;;;2.20;;
61531;SDS011;47397;48.194;11.632;2023-02-28T00:20:29;3.63;;;2.33;;
61531;SDS011;47397;48.194;11.632;2023-02-28T00:21:30;2.88;;;2.10;;
61531;SDS011;47397;48.194;11.632;2023-02-28T00:22:30;3.58;;;2.08;;
61531;SDS011;47397;48.194;11.632;2023-02-28T00:23:31;3.38;;;2.40;;
61531;SDS011;47397;48.194;11.632;2023-02-28T00:24:31;3.50;;;2.40;;
61531;SDS011;47397;48.194;11.632;2023-02-28T00:25:31;3.17;;;2.25;;
61531;SDS011;47397;48.194;11.632;2023-02-28T00:26:32;4.28;;;2.30;;
61531;SDS011;47397;48.194;11.632;2023-02-28T00:27:32;4.07;;;2.42;;
61531;SDS011;47397;48.194;11.632;2023-02-28T00:28:33;3.08;;;2.30;;
61531;SDS011;47397;48.194;11.632;2023-02-28T00:29:35;4.13;;;2.35;;
61531;SDS011;47397;48.194;11.632;2023-02-28T00:30:36;3.70;;;2.20;;
61531;SDS011;47397;48.194;11.632;2023-02-28T00:31:36;3.03;;;2.10;;
61531;SDS011;47397;48.194;11.632;2023-02-28T00:32:37;4.07;;;2.65;;
61531;SDS011;47397;48.194;11.632;2023-02-28T00:33:37;3.35;;;2.10;;
61531;SDS011;47397;48.194;11.632;2023-02-28T00:34:38;3.65;;;2.33;;
61531;SDS011;47397;48.194;11.632;2023-02-28T00:35:38;4.22;;;2.50;;
61531;SDS011;47397;48.194;11.632;2023-02-28T00:36:39;3.92;;;2.40;;
61531;SDS011;47397;48.194;11.632;2023-02-28T00:37:39;3.95;;;2.47;;
61531;SDS011;47397;48.194;11.632;2023-02-28T00:38:40;3.40;;;2.00;;
61531;SDS011;47397;48.194;11.632;2023-02-28T00:39:41;3.85;;;2.58;;
61531;SDS011;47397;48.194;11.632;2023-02-28T00:40:41;3.35;;;2.00;;
61531;SDS011;47397;48.194;11.632;2023-02-28T00:41:43;3.97;;;2.28;;
61531;SDS011;47397;48.194;11.632;2023-02-28T00:42:43;3.53;;;2.22;;
61531;SDS011;47397;48.194;11.632;2023-02-28T00:43:44;4.53;;;2.47;;
61531;SDS011;47397;48.194;11.632;2023-02-28T00:44:46;4.65;;;2.40;;
61531;SDS011;47397;48.194;11.632;2023-02-28T00:45:46;3.97;;;2.17;;
61531;SDS011;47397;48.194;11.632;2023-02-28T00:46:46;3.92;;;2.75;;
61531;SDS011;47397;48.194;11.632;2023-02-28T00:47:47;4.18;;;2.33;;
61531;SDS011;47397;48.194;11.632;2023-02-28T00:48:47;3.58;;;2.42;;
61531;SDS011;47397;48.194;11.632;2023-02-28T00:49:48;3.97;;;2.70;;
61531;SDS011;47397;48.194;11.632;2023-02-28T00:50:48;4.40;;;2.30;;
61531;SDS011;47397;48.194;11.632;2023-02-28T00:51:49;3.90;;;2.60;;
61531;SDS011;47397;48.194;11.632;2023-02-28T00:52:49;4.53;;;2.30;;
61531;SDS011;47397;48.194;11.632;2023-02-28T00:53:50;4.75;;;2.60;;
61531;SDS011;47397;48.194;11.632;2023-02-28T00:54:50;3.40;;;2.47;;
61531;SDS011;47397;48.194;11.632;2023-02-28T00:55:51;3.22;;;2.58;;
61531;SDS011;47397;48.194;11.632;2023-02-28T00:56:51;3.40;;;2.47;;
61531;SDS011;47397;48.194;11.632;2023-02-28T00:57:52;3.50;;;2.45;;
61531;SDS011;47397;48.194;11.632;2023-02-28T00:58:53;2.92;;;2.33;;
61531;SDS011;47397;48.194;11.632;2023-02-28T00:59:54;3.25;;;2.45;;
61531;SDS011;47397;48.194;11.632;2023-02-28T01:00:55;2.85;;;2.20;;
61531;SDS011;47397;48.194;11.632;2023-02-28T01:01:55;4.28;;;2.40;;
61531;SDS011;47397;48.194;11.632;2023-02-28T01:02:56;3.70;;;2.30;;
61531;SDS011;47397;48.194;11.632;2023-02-28T01:03:56;4.32;;;2.67;;
61531;SDS011;47397;48.194;11.632;2023-02-28T01:04:57;4.72;;;2.45;;
61531;SDS011;47397;48.194;11.632;2023-02-28T01:05:57;3.38;;;2.60;;
61531;SDS011;47397;48.194;11.632;2023-02-28T01:06:58;4.43;;;2.58;;
61531;SDS011;47397;48.194;11.632;2023-02-28T01:07:58;4.45;;;2.40;;
61531;SDS011;47397;48.194;11.632;2023-02-28T01:08:59;3.83;;;2.58;;
61531;SDS011;47397;48.194;11.632;2023-02-28T01:09:59;4.45;;;2.38;;
61531;SDS011;47397;48.194;11.632;2023-02-28T01:11:06;3.58;;;2.60;;
61531;SDS011;47397;48.194;11.632;2023-02-28T01:12:08;3.00;;;2.30;;
61531;SDS011;47397;48.194;11.632;2023-02-28T01:13:09;3.63;;;2.30;;
61531;SDS011;47397;48.194;11.632;2023-02-28T01:14:11;3.25;;;2.40;;
61531;SDS011;47397;48.194;11.632;2023-02-28T01:15:13;3.63;;;2.45;;
61531;SDS011;47397;48.194;11.632;2023-02-28T01:16:14;3.95;;;2.55;;
61531;SDS011;47397;48.194;11.632;2023-02-28T01:17:14;4.97;;;2.67;;
61531;SDS011;47397;48.194;11.632;2023-02-28T01:18:15;3.28;;;2.05;;
61531;SDS011;47397;48.194;11.632;2023-02-28T01:19:15;3.38;;;2.33;;
61531;SDS011;47397;48.194;11.632;2023-02-28T01:20:16;3.80;;;2.40;;
61531;SDS011;47397;48.194;11.632;2023-02-28T01:21:17;3.50;;;2.22;;
61531;SDS011;47397;48.194;11.632;2023-02-28T01:22:20;3.97;;;2.50;;
61531;SDS011;47397;48.194;11.632;2023-02-28T01:23:21;3.67;;;2.38;;
61531;SDS011;47397;48.194;11.632;2023-02-28T01:24:22;3.88;;;2.60;;
61531;SDS011;47397;48.194;11.632;2023-02-28T01:25:22;3.85;;;2.15;;
61531;SDS011;47397;48.194;11.632;2023-02-28T01:26:23;4.55;;;2.42;;
61531;SDS011;47397;48.194;11.632;2023-02-28T01:27:23;3.83;;;2.33;;
61531;SDS011;47397;48.194;11.632;2023-02-28T01:28:24;4.25;;;2.60;;
61531;SDS011;47397;48.194;11.632;2023-02-28T01:29:24;4.50;;;2.53;;
61531;SDS011;47397;48.194;11.632;2023-02-28T01:30:26;3.88;;;2.65;;
61531;SDS011;47397;48.194;11.632;2023-02-28T01:31:26;4.32;;;2.40;;
61531;SDS011;47397;48.194;11.632;2023-02-28T01:32:27;3.45;;;2.50;;
61531;SDS011;47397;48.194;11.632;2023-02-28T01:33:28;4.50;;;2.40;;
61531;SDS011;47397;48.194;11.632;2023-02-28T01:34:28;3.60;;;2.60;;
61531;SDS011;47397;48.194;11.632;2023-02-28T01:35:31;4.13;;;2.70;;
61531;SDS011;47397;48.194;11.632;2023-02-28T01:36:32;3.33;;;2.20;;
61531;SDS011;47397;48.194;11.632;2023-02-28T01:37:32;3.78;;;2.40;;
61531;SDS011;47397;48.194;11.632;2023-02-28T01:38:33;3.47;;;2.35;;
61531;SDS011;47397;48.194;11.632;2023-02-28T01:39:34;3.38;;;2.47;;
61531;SDS011;47397;48.194;11.632;2023-02-28T01:40:34;4.38;;;2.75;;
61531;SDS011;47397;48.194;11.632;2023-02-28T01:41:34;4.20;;;2.58;;
61531;SDS011;47397;48.194;11.632;2023-02-28T01:42:35;5.13;;;2.50;;
61531;SDS011;47397;48.194;11.632;2023-02-28T01:45:03;3.40;;;2.35;;
61531;SDS011;47397;48.194;11.632;2023-02-28T01:46:16;4.32;;;2.58;;
61531;SDS011;47397;48.194;11.632;2023-02-28T01:47:16;4.53;;;2.40;;
61531;SDS011;47397;48.194;11.632;2023-02-28T01:48:17;3.67;;;2.60;;
61531;SDS011;47397;48.194;11.632;2023-02-28T01:49:19;3.88;;;2.47;;
61531;SDS011;47397;48.194;11.632;2023-02-28T01:50:20;4.00;;;2.63;;
61531;SDS011;47397;48.194;11.632;2023-02-28T01:51:25;3.53;;;2.00;;
61531;SDS011;47397;48.194;11.632;2023-02-28T01:52:29;3.22;;;2.38;;
61531;SDS011;47397;48.194;11.632;2023-02-28T01:53:31;4.70;;;2.72;;
61531;SDS011;47397;48.194;11.632;2023-02-28T01:54:34;3.47;;;2.60;;
61531;SDS011;47397;48.194;11.632;2023-02-28T01:55:35;4.47;;;2.63;;
61531;SDS011;47397;48.194;11.632;2023-02-28T01:56:37;4.22;;;2.47;;
61531;SDS011;47397;48.194;11.632;2023-02-28T01:57:38;3.85;;;2.72;;
61531;SDS011;47397;48.194;11.632;2023-02-28T01:58:42;3.22;;;2.60;;
61531;SDS011;47397;48.194;11.632;2023-02-28T01:59:43;4.82;;;2.50;;
61531;SDS011;47397;48.194;11.632;2023-02-28T02:00:47;4.03;;;2.25;;
61531;SDS011;47397;48.194;11.632;2023-02-28T02:01:50;3.45;;;2.47;;
61531;SDS011;47397;48.194;11.632;2023-02-28T02:02:51;4.05;;;2.38;;
61531;SDS011;47397;48.194;11.632;2023-02-28T02:03:56;4.55;;;2.10;;
61531;SDS011;47397;48.194;11.632;2023-02-28T02:05:00;4.32;;;2.80;;
61531;SDS011;47397;48.194;11.632;2023-02-28T02:06:04;4.22;;;2.45;;
61531;SDS011;47397;48.194;11.632;2023-02-28T02:07:04;3.45;;;2.40;;
61531;SDS011;47397;48.194;11.632;2023-02-28T02:08:06;3.65;;;2.50;;
61531;SDS011;47397;48.194;11.632;2023-02-28T02:09:09;3.30;;;2.33;;
61531;SDS011;47397;48.194;11.632;2023-02-28T02:10:12;3.05;;;2.13;;
61531;SDS011;47397;48.194;11.632;2023-02-28T02:11:14;3.47;;;2.38;;
61531;SDS011;47397;48.194;11.632;2023-02-28T02:12:23;4.18;;;2.30;;
61531;SDS011;47397;48.194;11.632;2023-02-28T02:13:34;3.70;;;2.30;;
61531;SDS011;47397;48.194;11.632;2023-02-28T02:14:49;4.70;;;2.60;;
61531;SDS011;47397;48.194;11.632;2023-02-28T02:16:03;4.00;;;2.70;;
61531;SDS011;47397;48.194;11.632;2023-02-28T02:17:15;3.88;;;2.60;;
61531;SDS011;47397;48.194;11.632;2023-02-28T02:18:26;3.70;;;2.67;;
61531;SDS011;47397;48.194;11.632;2023-02-28T02:19:49;3.50;;;2.47;;
61531;SDS011;47397;48.194;11.632;2023-02-28T02:25:59;5.45;;;3.03;;
61531;SDS011;47397;48.194;11.632;2023-02-28T02:27:20;3.42;;;2.55;;
61531;SDS011;47397;48.194;11.632;2023-02-28T02:33:05;3.00;;;2.05;;
61531;SDS011;47397;48.194;11.632;2023-02-28T02:35:52;3.38;;;2.20;;
61531;SDS011;47397;48.194;11.632;2023-02-28T02:36:58;3.97;;;2.42;;
61531;SDS011;47397;48.194;11.632;2023-02-28T02:38:08;3.72;;;2.30;;
61531;SDS011;47397;48.194;11.632;2023-02-28T02:39:18;4.35;;;2.45;;
61531;SDS011;47397;48.194;11.632;2023-02-28T02:40:22;3.65;;;2.50;;
61531;SDS011;47397;48.194;11.632;2023-02-28T02:41:28;3.78;;;2.63;;
61531;SDS011;47397;48.194;11.632;2023-02-28T02:42:36;3.83;;;2.25;;
61531;SDS011;47397;48.194;11.632;2023-02-28T02:43:44;4.70;;;2.97;;
61531;SDS011;47397;48.194;11.632;2023-02-28T02:44:49;3.72;;;2.50;;
61531;SDS011;47397;48.194;11.632;2023-02-28T02:45:53;3.40;;;2.33;;
61531;SDS011;47397;48.194;11.632;2023-02-28T02:46:57;3.67;;;2.63;;
61531;SDS011;47397;48.194;11.632;2023-02-28T02:48:02;3.67;;;2.40;;
61531;SDS011;47397;48.194;11.632;2023-02-28T02:49:06;3.60;;;2.55;;
61531;SDS011;47397;48.194;11.632;2023-02-28T02:50:12;3.75;;;2.75;;
61531;SDS011;47397;48.194;11.632;2023-02-28T02:51:17;5.13;;;2.97;;
61531;SDS011;47397;48.194;11.632;2023-02-28T02:52:22;3.72;;;2.67;;
61531;SDS011;47397;48.194;11.632;2023-02-28T02:53:26;3.30;;;2.47;;
61531;SDS011;47397;48.194;11.632;2023-02-28T02:54:31;4.32;;;2.78;;
61531;SDS011;47397;48.194;11.632;2023-02-28T02:55:36;3.58;;;2.53;;
61531;SDS011;47397;48.194;11.632;2023-02-28T02:56:41;3.78;;;2.30;;
61531;SDS011;47397;48.194;11.632;2023-02-28T02:57:45;3.80;;;2.50;;
61531;SDS011;47397;48.194;11.632;2023-02-28T02:58:48;3.88;;;2.88;;
61531;SDS011;47397;48.194;11.632;2023-02-28T02:59:52;4.20;;;2.33;;
61531;SDS011;47397;48.194;11.632;2023-02-28T03:00:56;4.97;;;2.85;;
61531;SDS011;47397;48.194;11.632;2023-02-28T03:01:59;3.60;;;2.55;;
61531;SDS011;47397;48.194;11.632;2023-02-28T03:03:03;4.45;;;2.72;;
61531;SDS011;47397;48.194;11.632;2023-02-28T03:04:06;4.30;;;2.58;;
61531;SDS011;47397;48.194;11.632;2023-02-28T03:05:14;3.80;;;2.50;;
61531;SDS011;47397;48.194;11.632;2023-02-28T03:06:19;3.65;;;2.63;;
61531;SDS011;47397;48.194;11.632;2023-02-28T03:07:19;4.22;;;2.58;;
61531;SDS011;47397;48.194;11.632;2023-02-28T03:08:20;3.92;;;2.85;;
61531;SDS011;47397;48.194;11.632;2023-02-28T03:09:20;3.78;;;2.50;;
61531;SDS011;47397;48.194;11.632;2023-02-28T03:11:43;3.55;;;2.75;;
61531;SDS011;47397;48.194;11.632;2023-02-28T03:12:46;4.10;;;2.90;;
61531;SDS011;47397;48.194;11.632;2023-02-28T03:13:57;3.65;;;2.55;;
61531;SDS011;47397;48.194;11.632;2023-02-28T03:15:10;5.25;;;2.83;;
61531;SDS011;47397;48.194;11.632;2023-02-28T03:17:42;5.47;;;2.63;;
61531;SDS011;47397;48.194;11.632;2023-02-28T03:18:51;4.47;;;2.47;;
61531;SDS011;47397;48.194;11.632;2023-02-28T03:19:59;5.47;;;2.90;;
61531;SDS011;47397;48.194;11.632;2023-02-28T03:21:06;4.45;;;2.80;;
61531;SDS011;47397;48.194;11.632;2023-02-28T03:22:16;4.45;;;2.70;;
61531;SDS011;47397;48.194;11.632;2023-02-28T03:23:27;4.15;;;2.95;;
61531;SDS011;47397;48.194;11.632;2023-02-28T03:24:37;5.10;;;3.03;;
61531;SDS011;47397;48.194;11.632;2023-02-28T03:25:46;4.43;;;2.80;;
61531;SDS011;47397;48.194;11.632;2023-02-28T03:26:55;3.65;;;2.85;;
61531;SDS011;47397;48.194;11.632;2023-02-28T03:28:00;3.65;;;2.80;;
61531;SDS011;47397;48.194;11.632;2023-02-28T03:29:06;3.95;;;2.65;;
61531;SDS011;47397;48.194;11.632;2023-02-28T03:30:14;3.97;;;2.80;;
61531;SDS011;47397;48.194;11.632;2023-02-28T03:31:21;5.43;;;2.70;;
61531;SDS011;47397;48.194;11.632;2023-02-28T03:32:26;4.22;;;3.20;;
61531;SDS011;47397;48.194;11.632;2023-02-28T03:33:35;4.75;;;3.00;;
61531;SDS011;47397;48.194;11.632;2023-02-28T03:34:39;5.70;;;3.55;;
61531;SDS011;47397;48.194;11.632;2023-02-28T03:35:43;4.43;;;2.88;;
61531;SDS011;47397;48.194;11.632;2023-02-28T03:36:49;4.80;;;3.10;;
61531;SDS011;47397;48.194;11.632;2023-02-28T03:37:55;5.20;;;3.10;;
61531;SDS011;47397;48.194;11.632;2023-02-28T03:39:01;3.95;;;2.83;;
61531;SDS011;47397;48.194;11.632;2023-02-28T03:40:04;5.20;;;3.33;;
61531;SDS011;47397;48.194;11.632;2023-02-28T03:41:10;5.10;;;3.08;;
61531;SDS011;47397;48.194;11.632;2023-02-28T03:42:15;4.47;;;2.92;;
61531;SDS011;47397;48.194;11.632;2023-02-28T03:43:20;4.82;;;3.10;;
61531;SDS011;47397;48.194;11.632;2023-02-28T03:44:25;5.30;;;3.25;;
61531;SDS011;47397;48.194;11.632;2023-02-28T03:45:29;6.28;;;3.45;;
61531;SDS011;47397;48.194;11.632;2023-02-28T03:46:36;4.10;;;2.63;;
61531;SDS011;47397;48.194;11.632;2023-02-28T03:47:39;4.22;;;3.30;;
61531;SDS011;47397;48.194;11.632;2023-02-28T03:48:43;6.80;;;3.70;;
61531;SDS011;47397;48.194;11.632;2023-02-28T03:49:46;7.32;;;3.80;;
61531;SDS011;47397;48.194;11.632;2023-02-28T03:50:51;5.18;;;3.38;;
61531;SDS011;47397;48.194;11.632;2023-02-28T03:51:57;5.38;;;3.55;;
61531;SDS011;47397;48.194;11.632;2023-02-28T03:53:01;6.03;;;3.50;;
61531;SDS011;47397;48.194;11.632;2023-02-28T03:54:08;6.10;;;3.80;;
61531;SDS011;47397;48.194;11.632;2023-02-28T03:55:12;6.30;;;3.83;;
61531;SDS011;47397;48.194;11.632;2023-02-28T03:56:16;5.78;;;3.67;;
61531;SDS011;47397;48.194;11.632;2023-02-28T03:57:20;6.53;;;3.85;;
61531;SDS011;47397;48.194;11.632;2023-02-28T03:58:36;5.45;;;3.40;;
61531;SDS011;47397;48.194;11.632;2023-02-28T03:59:43;6.00;;;3.53;;
61531;SDS011;47397;48.194;11.632;2023-02-28T04:00:46;5.40;;;3.60;;
61531;SDS011;47397;48.194;11.632;2023-02-28T04:01:49;6.10;;;3.35;;
61531;SDS011;47397;48.194;11.632;2023-02-28T04:02:50;5.35;;;3.58;;
61531;SDS011;47397;48.194;11.632;2023-02-28T04:03:51;4.82;;;3.53;;
61531;SDS011;47397;48.194;11.632;2023-02-28T04:04:51;5.45;;;3.85;;
61531;SDS011;47397;48.194;11.632;2023-02-28T04:05:52;5.63;;;3.55;;
61531;SDS011;47397;48.194;11.632;2023-02-28T04:07:01;5.22;;;3.50;;
61531;SDS011;47397;48.194;11.632;2023-02-28T04:08:04;4.53;;;3.67;;
61531;SDS011;47397;48.194;11.632;2023-02-28T04:09:06;4.40;;;3.22;;
61531;SDS011;47397;48.194;11.632;2023-02-28T04:10:08;4.72;;;3.50;;
61531;SDS011;47397;48.194;11.632;2023-02-28T04:11:12;4.97;;;3.63;;
61531;SDS011;47397;48.194;11.632;2023-02-28T04:12:19;5.07;;;3.53;;
61531;SDS011;47397;48.194;11.632;2023-02-28T04:13:20;5.32;;;3.33;;
61531;SDS011;47397;48.194;11.632;2023-02-28T04:14:20;6.63;;;3.60;;
61531;SDS011;47397;48.194;11.632;2023-02-28T04:15:21;6.13;;;3.92;;
61531;SDS011;47397;48.194;11.632;2023-02-28T04:16:22;6.40;;;3.78;;
61531;SDS011;47397;48.194;11.632;2023-02-28T04:17:22;5.18;;;3.47;;
61531;SDS011;47397;48.194;11.632;2023-02-28T04:18:22;6.97;;;3.88;;
61531;SDS011;47397;48.194;11.632;2023-02-28T04:19:23;5.35;;;3.55;;
61531;SDS011;47397;48.194;11.632;2023-02-28T04:20:23;5.20;;;4.03;;
61531;SDS011;47397;48.194;11.632;2023-02-28T04:21:24;5.50;;;3.55;;
61531;SDS011;47397;48.194;11.632;2023-02-28T04:22:25;5.13;;;3.67;;
61531;SDS011;47397;48.194;11.632;2023-02-28T04:23:26;6.10;;;3.70;;
61531;SDS011;47397;48.194;11.632;2023-02-28T04:24:27;5.15;;;3.60;;
61531;SDS011;47397;48.194;11.632;2023-02-28T04:25:28;5.13;;;3.55;;
61531;SDS011;47397;48.194;11.632;2023-02-28T04:26:29;4.78;;;3.40;;
61531;SDS011;47397;48.194;11.632;2023-02-28T04:27:29;5.45;;;4.05;;
61531;SDS011;47397;48.194;11.632;2023-02-28T04:28:30;5.05;;;3.20;;
61531;SDS011;47397;48.194;11.632;2023-02-28T04:29:31;5.70;;;3.60;;
61531;SDS011;47397;48.194;11.632;2023-02-28T04:30:31;5.05;;;3.78;;
61531;SDS011;47397;48.194;11.632;2023-02-28T04:31:32;5.18;;;3.78;;
61531;SDS011;47397;48.194;11.632;2023-02-28T04:32:32;5.43;;;3.60;;
61531;SDS011;47397;48.194;11.632;2023-02-28T04:33:33;6.07;;;3.55;;
61531;SDS011;47397;48.194;11.632;2023-02-28T04:34:33;7.07;;;4.53;;
61531;SDS011;47397;48.194;11.632;2023-02-28T04:35:34;5.78;;;3.80;;
61531;SDS011;47397;48.194;11.632;2023-02-28T04:36:34;6.88;;;4.10;;
61531;SDS011;47397;48.194;11.632;2023-02-28T04:37:36;5.78;;;3.83;;
61531;SDS011;47397;48.194;11.632;2023-02-28T04:38:37;5.32;;;3.75;;
61531;SDS011;47397;48.194;11.632;2023-02-28T04:39:38;5.82;;;3.85;;
61531;SDS011;47397;48.194;11.632;2023-02-28T04:40:39;6.15;;;3.67;;
61531;SDS011;47397;48.194;11.632;2023-02-28T04:41:40;5.68;;;3.72;;
61531;SDS011;47397;48.194;11.632;2023-02-28T04:42:40;6.47;;;4.38;;
61531;SDS011;47397;48.194;11.632;2023-02-28T04:43:40;5.90;;;3.80;;
61531;SDS011;47397;48.194;11.632;2023-02-28T04:44:41;7.20;;;4.05;;
61531;SDS011;47397;48.194;11.632;2023-02-28T04:45:41;5.35;;;3.80;;
61531;SDS011;47397;48.194;11.632;2023-02-28T04:46:42;5.45;;;3.92;;
61531;SDS011;47397;48.194;11.632;2023-02-28T04:47:42;5.82;;;4.25;;
61531;SDS011;47397;48.194;11.632;2023-02-28T04:48:43;4.35;;;3.67;;
61531;SDS011;47397;48.194;11.632;2023-02-28T04:49:43;6.07;;;4.10;;
61531;SDS011;47397;48.194;11.632;2023-02-28T04:50:44;5.35;;;4.05;;
61531;SDS011;47397;48.194;11.632;2023-02-28T04:51:44;5.65;;;4.38;;
61531;SDS011;47397;48.194;11.632;2023-02-28T04:52:46;7.03;;;4.30;;
61531;SDS011;47397;48.194;11.632;2023-02-28T04:53:46;6.03;;;4.25;;
61531;SDS011;47397;48.194;11.632;2023-02-28T04:54:47;7.30;;;4.35;;
61531;SDS011;47397;48.194;11.632;2023-02-28T04:55:47;5.80;;;4.05;;
61531;SDS011;47397;48.194;11.632;2023-02-28T04:56:48;7.07;;;4.43;;
61531;SDS011;47397;48.194;11.632;2023-02-28T04:57:48;6.63;;;4.43;;
61531;SDS011;47397;48.194;11.632;2023-02-28T04:58:49;5.93;;;4.60;;
61531;SDS011;47397;48.194;11.632;2023-02-28T04:59:49;5.18;;;3.63;;
61531;SDS011;47397;48.194;11.632;2023-02-28T05:00:50;6.78;;;4.38;;
61531;SDS011;47397;48.194;11.632;2023-02-28T05:01:50;6.28;;;4.30;;
61531;SDS011;47397;48.194;11.632;2023-02-28T05:02:51;5.85;;;4.35;;
61531;SDS011;47397;48.194;11.632;2023-02-28T05:03:52;6.25;;;4.53;;
61531;SDS011;47397;48.194;11.632;2023-02-28T05:04:53;5.85;;;4.28;;
61531;SDS011;47397;48.194;11.632;2023-02-28T05:05:54;6.88;;;4.38;;
61531;SDS011;47397;48.194;11.632;2023-02-28T05:06:54;6.80;;;4.30;;
61531;SDS011;47397;48.194;11.632;2023-02-28T05:07:56;8.20;;;5.03;;
61531;SDS011;47397;48.194;11.632;2023-02-28T05:08:56;6.25;;;4.30;;
61531;SDS011;47397;48.194;11.632;2023-02-28T05:09:57;6.38;;;4.07;;
61531;SDS011;47397;48.194;11.632;2023-02-28T05:10:58;6.60;;;4.97;;
61531;SDS011;47397;48.194;11.632;2023-02-28T05:11:58;7.13;;;4.53;;
61531;SDS011;47397;48.194;11.632;2023-02-28T05:12:58;5.88;;;4.60;;
61531;SDS011;47397;48.194;11.632;2023-02-28T05:13:59;7.70;;;4.80;;
61531;SDS011;47397;48.194;11.632;2023-02-28T05:14:59;6.63;;;4.63;;
61531;SDS011;47397;48.194;11.632;2023-02-28T05:16:00;6.65;;;4.88;;
61531;SDS011;47397;48.194;11.632;2023-02-28T05:17:00;6.50;;;4.25;;
61531;SDS011;47397;48.194;11.632;2023-02-28T05:18:00;7.13;;;5.10;;
61531;SDS011;47397;48.194;11.632;2023-02-28T05:19:01;8.63;;;5.40;;
61531;SDS011;47397;48.194;11.632;2023-02-28T05:20:01;6.68;;;4.75;;
61531;SDS011;47397;48.194;11.632;2023-02-28T05:21:02;7.57;;;4.80;;
61531;SDS011;47397;48.194;11.632;2023-02-28T05:22:03;6.22;;;4.53;;
61531;SDS011;47397;48.194;11.632;2023-02-28T05:23:04;7.68;;;5.20;;
61531;SDS011;47397;48.194;11.632;2023-02-28T05:24:05;6.88;;;5.18;;
61531;SDS011;47397;48.194;11.632;2023-02-28T05:25:08;6.32;;;4.82;;
61531;SDS011;47397;48.194;11.632;2023-02-28T05:26:10;6.93;;;4.72;;
61531;SDS011;47397;48.194;11.632;2023-02-28T05:27:11;6.65;;;4.88;;
61531;SDS011;47397;48.194;11.632;2023-02-28T05:28:11;6.78;;;4.93;;
61531;SDS011;47397;48.194;11.632;2023-02-28T05:29:11;6.43;;;4.63;;
61531;SDS011;47397;48.194;11.632;2023-02-28T05:30:12;6.45;;;4.50;;
61531;SDS011;47397;48.194;11.632;2023-02-28T05:31:13;6.65;;;4.90;;
61531;SDS011;47397;48.194;11.632;2023-02-28T05:32:14;6.63;;;4.50;;
61531;SDS011;47397;48.194;11.632;2023-02-28T05:33:15;7.95;;;5.15;;
61531;SDS011;47397;48.194;11.632;2023-02-28T05:34:15;6.63;;;4.97;;
61531;SDS011;47397;48.194;11.632;2023-02-28T05:35:15;6.78;;;5.30;;
61531;SDS011;47397;48.194;11.632;2023-02-28T05:36:16;5.78;;;4.70;;
61531;SDS011;47397;48.194;11.632;2023-02-28T05:37:16;8.30;;;5.20;;
61531;SDS011;47397;48.194;11.632;2023-02-28T05:38:18;7.28;;;5.05;;
61531;SDS011;47397;48.194;11.632;2023-02-28T05:39:19;7.22;;;4.93;;
61531;SDS011;47397;48.194;11.632;2023-02-28T05:40:19;8.50;;;5.63;;
61531;SDS011;47397;48.194;11.632;2023-02-28T05:41:19;7.97;;;5.32;;
61531;SDS011;47397;48.194;11.632;2023-02-28T05:42:20;7.28;;;5.15;;
61531;SDS011;47397;48.194;11.632;2023-02-28T05:43:20;7.65;;;5.13;;
61531;SDS011;47397;48.194;11.632;2023-02-28T05:44:21;5.97;;;4.88;;
61531;SDS011;47397;48.194;11.632;2023-02-28T05:45:21;6.63;;;4.95;;
61531;SDS011;47397;48.194;11.632;2023-02-28T05:46:21;8.68;;;5.60;;
61531;SDS011;47397;48.194;11.632;2023-02-28T05:47:22;6.70;;;4.60;;
61531;SDS011;47397;48.194;11.632;2023-02-28T05:48:22;8.77;;;5.65;;
61531;SDS011;47397;48.194;11.632;2023-02-28T05:49:23;8.65;;;5.75;;
61531;SDS011;47397;48.194;11.632;2023-02-28T05:50:23;7.40;;;5.40;;
61531;SDS011;47397;48.194;11.632;2023-02-28T05:51:23;7.85;;;5.20;;
61531;SDS011;47397;48.194;11.632;2023-02-28T05:52:24;8.27;;;5.35;;
61531;SDS011;47397;48.194;11.632;2023-02-28T05:53:26;7.35;;;4.88;;
61531;SDS011;47397;48.194;11.632;2023-02-28T05:54:26;7.82;;;5.50;;
61531;SDS011;47397;48.194;11.632;2023-02-28T05:55:26;7.25;;;5.32;;
61531;SDS011;47397;48.194;11.632;2023-02-28T05:56:27;7.40;;;5.07;;
61531;SDS011;47397;48.194;11.632;2023-02-28T05:57:28;8.50;;;5.88;;
61531;SDS011;47397;48.194;11.632;2023-02-28T05:58:28;8.70;;;5.38;;
61531;SDS011;47397;48.194;11.632;2023-02-28T05:59:29;6.70;;;5.00;;
61531;SDS011;47397;48.194;11.632;2023-02-28T06:00:29;7.20;;;5.57;;
61531;SDS011;47397;48.194;11.632;2023-02-28T06:01:31;8.32;;;4.88;;
61531;SDS011;47397;48.194;11.632;2023-02-28T06:02:33;8.80;;;5.80;;
61531;SDS011;47397;48.194;11.632;2023-02-28T06:03:33;8.13;;;5.60;;
61531;SDS011;47397;48.194;11.632;2023-02-28T06:04:34;7.38;;;5.30;;
61531;SDS011;47397;48.194;11.632;2023-02-28T06:05:34;6.97;;;5.03;;
61531;SDS011;47397;48.194;11.632;2023-02-28T06:06:35;8.25;;;5.38;;
61531;SDS011;47397;48.194;11.632;2023-02-28T06:07:35;7.88;;;5.30;;
61531;SDS011;47397;48.194;11.632;2023-02-28T06:08:37;7.25;;;5.68;;
61531;SDS011;47397;48.194;11.632;2023-02-28T06:09:37;6.78;;;5.50;;
61531;SDS011;47397;48.194;11.632;2023-02-28T06:10:38;7.55;;;5.72;;
61531;SDS011;47397;48.194;11.632;2023-02-28T06:11:38;8.40;;;5.43;;
61531;SDS011;47397;48.194;11.632;2023-02-28T06:12:39;8.63;;;6.28;;
61531;SDS011;47397;48.194;11.632;2023-02-28T06:13:40;9.13;;;5.72;;
61531;SDS011;47397;48.194;11.632;2023-02-28T06:14:41;7.57;;;6.00;;
61531;SDS011;47397;48.194;11.632;2023-02-28T06:15:41;7.65;;;5.72;;
61531;SDS011;47397;48.194;11.632;2023-02-28T06:16:41;7.80;;;5.25;;
61531;SDS011;47397;48.194;11.632;2023-02-28T06:17:42;8.40;;;5.50;;
61531;SDS011;47397;48.194;11.632;2023-02-28T06:18:44;7.72;;;5.30;;
61531;SDS011;47397;48.194;11.632;2023-02-28T06:19:44;7.60;;;5.55;;
61531;SDS011;47397;48.194;11.632;2023-02-28T06:20:44;7.80;;;5.85;;
61531;SDS011;47397;48.194;11.632;2023-02-28T06:21:52;7.43;;;5.10;;
61531;SDS011;47397;48.194;11.632;2023-02-28T06:22:53;8.43;;;5.88;;
61531;SDS011;47397;48.194;11.632;2023-02-28T06:23:55;8.20;;;5.93;;
61531;SDS011;47397;48.194;11.632;2023-02-28T06:24:56;8.27;;;5.65;;